sensor_id;sensor_type;location;lat;lon;timestamp;pressure;altitude;pressure_sealevel;temperature;humidity
26376;BME280;30544;42.196;24.336;2024-01-30T00:02:24;101345.97;;;1.27;63.76
26376;BME280;30544;42.196;24.336;2024-01-30T00:04:50;101353.44;;;1.25;64.00
26376;BME280;30544;42.196;24.336;2024-01-30T00:07:18;101350.56;;;1.26;64.34
26376;BME280;30544;42.196;24.336;2024-01-30T00:09:46;101358.47;;;1.19;64.19
26376;BME280;30544;42.196;24.336;2024-01-30T00:12:12;101358.84;;;1.15;64.63
26376;BME280;30544;42.196;24.336;2024-01-30T00:14:41;101362.72;;;1.12;64.09
26376;BME280;30544;42.196;24.336;2024-01-30T00:17:07;101361.44;;;1.16;64.63
26376;BME280;30544;42.196;24.336;2024-01-30T00:19:34;101362.44;;;1.15;65.02
26376;BME280;30544;42.196;24.336;2024-01-30T00:22:00;101366.31;;;1.13;64.36
26376;BME280;30544;42.196;24.336;2024-01-30T00:24:28;101364.31;;;1.15;64.72
26376;BME280;30544;42.196;24.336;2024-01-30T00:26:55;101361.44;;;1.16;64.37
26376;BME280;30544;42.196;24.336;2024-01-30T00:29:21;101364.13;;;1.07;64.63
26376;BME280;30544;42.196;24.336;2024-01-30T00:31:48;101371.06;;;1.11;64.71
26376;BME280;30544;42.196;24.336;2024-01-30T00:34:14;101373.78;;;1.11;64.45
26376;BME280;30544;42.196;24.336;2024-01-30T00:36:41;101367.59;;;1.09;64.49
26376;BME280;30544;42.196;24.336;2024-01-30T00:39:07;101370.13;;;1.01;65.26
26376;BME280;30544;42.196;24.336;2024-01-30T00:41:36;101380.59;;;0.96;65.45
26376;BME280;30544;42.196;24.336;2024-01-30T00:44:02;101374.00;;;0.98;64.68
26376;BME280;30544;42.196;24.336;2024-01-30T00:46:29;101370.41;;;0.98;64.76
26376;BME280;30544;42.196;24.336;2024-01-30T00:48:55;101372.25;;;0.97;64.93
26376;BME280;30544;42.196;24.336;2024-01-30T00:51:22;101368.53;;;0.98;65.41
26376;BME280;30544;42.196;24.336;2024-01-30T00:53:48;101375.28;;;0.94;65.71
26376;BME280;30544;42.196;24.336;2024-01-30T00:56:15;101372.53;;;0.94;65.34
26376;BME280;30544;42.196;24.336;2024-01-30T00:58:44;101368.00;;;0.83;65.75
26376;BME280;30544;42.196;24.336;2024-01-30T01:01:11;101374.28;;;0.74;66.00
26376;BME280;30544;42.196;24.336;2024-01-30T01:03:38;101368.00;;;0.83;65.47
26376;BME280;30544;42.196;24.336;2024-01-30T01:06:06;101366.91;;;0.86;65.34
26376;BME280;30544;42.196;24.336;2024-01-30T01:08:32;101374.22;;;0.85;65.45
26376;BME280;30544;42.196;24.336;2024-01-30T01:10:58;101374.31;;;0.84;65.30
26376;BME280;30544;42.196;24.336;2024-01-30T01:13:25;101374.47;;;0.82;65.28
26376;BME280;30544;42.196;24.336;2024-01-30T01:15:53;101379.94;;;0.82;65.46
26376;BME280;30544;42.196;24.336;2024-01-30T01:18:20;101368.28;;;0.80;65.17
26376;BME280;30544;42.196;24.336;2024-01-30T01:20:46;101364.81;;;0.78;64.92
26376;BME280;30544;42.196;24.336;2024-01-30T01:23:13;101361.94;;;0.80;65.14
26376;BME280;30544;42.196;24.336;2024-01-30T01:25:39;101369.53;;;0.76;65.70
26376;BME280;30544;42.196;24.336;2024-01-30T01:28:06;101371.53;;;0.74;65.96
26376;BME280;30544;42.196;24.336;2024-01-30T01:30:32;101365.22;;;0.74;65.34
26376;BME280;30544;42.196;24.336;2024-01-30T01:33:00;101360.47;;;0.76;65.34
26376;BME280;30544;42.196;24.336;2024-01-30T01:35:27;101359.34;;;0.78;65.36
26376;BME280;30544;42.196;24.336;2024-01-30T01:37:54;101352.59;;;0.82;66.17
26376;BME280;30544;42.196;24.336;2024-01-30T01:40:22;101358.22;;;0.81;66.33
26376;BME280;30544;42.196;24.336;2024-01-30T01:42:49;101348.56;;;0.77;66.48
26376;BME280;30544;42.196;24.336;2024-01-30T01:45:16;101342.50;;;0.73;65.77
26376;BME280;30544;42.196;24.336;2024-01-30T01:47:42;101355.56;;;0.70;66.55
26376;BME280;30544;42.196;24.336;2024-01-30T01:50:12;101350.47;;;0.65;66.62
26376;BME280;30544;42.196;24.336;2024-01-30T01:52:39;101352.09;;;0.68;66.57
26376;BME280;30544;42.196;24.336;2024-01-30T01:55:06;101352.19;;;0.66;67.26
26376;BME280;30544;42.196;24.336;2024-01-30T01:57:33;101343.94;;;0.56;67.77
26376;BME280;30544;42.196;24.336;2024-01-30T02:00:00;101353.88;;;0.57;67.19
26376;BME280;30544;42.196;24.336;2024-01-30T02:02:27;101351.28;;;0.56;67.44
26376;BME280;30544;42.196;24.336;2024-01-30T02:04:56;101357.38;;;0.48;67.31
26376;BME280;30544;42.196;24.336;2024-01-30T02:07:24;101346.13;;;0.42;67.77
26376;BME280;30544;42.196;24.336;2024-01-30T02:09:51;101341.66;;;0.41;67.72
26376;BME280;30544;42.196;24.336;2024-01-30T02:12:17;101348.28;;;0.38;68.22
26376;BME280;30544;42.196;24.336;2024-01-30T02:14:44;101355.59;;;0.38;67.55
26376;BME280;30544;42.196;24.336;2024-01-30T02:17:11;101351.25;;;0.35;67.91
26376;BME280;30544;42.196;24.336;2024-01-30T02:19:37;101349.53;;;0.34;68.40
26376;BME280;30544;42.196;24.336;2024-01-30T02:22:05;101348.41;;;0.37;68.28
26376;BME280;30544;42.196;24.336;2024-01-30T02:24:32;101356.81;;;0.34;68.45
26376;BME280;30544;42.196;24.336;2024-01-30T02:26:59;101350.41;;;0.35;68.41
26376;BME280;30544;42.196;24.336;2024-01-30T02:29:25;101358.81;;;0.32;68.08
26376;BME280;30544;42.196;24.336;2024-01-30T02:31:52;101350.78;;;0.30;67.87
26376;BME280;30544;42.196;24.336;2024-01-30T02:34:18;101352.91;;;0.26;67.97
26376;BME280;30544;42.196;24.336;2024-01-30T02:36:45;101362.09;;;0.25;68.27
26376;BME280;30544;42.196;24.336;2024-01-30T02:39:13;101354.66;;;0.16;68.02
26376;BME280;30544;42.196;24.336;2024-01-30T02:41:40;101364.84;;;0.14;68.54
26376;BME280;30544;42.196;24.336;2024-01-30T02:44:06;101364.63;;;0.17;68.73
26376;BME280;30544;42.196;24.336;2024-01-30T02:46:33;101356.66;;;0.14;68.78
26376;BME280;30544;42.196;24.336;2024-01-30T02:48:59;101359.38;;;0.14;68.72
26376;BME280;30544;42.196;24.336;2024-01-30T02:51:26;101343.28;;;0.11;69.06
26376;BME280;30544;42.196;24.336;2024-01-30T02:53:52;101349.47;;;0.13;69.22
26376;BME280;30544;42.196;24.336;2024-01-30T02:56:20;101353.19;;;0.12;68.72
26376;BME280;30544;42.196;24.336;2024-01-30T02:58:46;101353.59;;;0.08;69.30
26376;BME280;30544;42.196;24.336;2024-01-30T03:01:13;101357.91;;;0.10;68.80
26376;BME280;30544;42.196;24.336;2024-01-30T03:03:40;101354.47;;;0.08;69.03
26376;BME280;30544;42.196;24.336;2024-01-30T03:06:07;101351.94;;;0.16;68.78
26376;BME280;30544;42.196;24.336;2024-01-30T03:08:34;101367.84;;;0.11;68.69
26376;BME280;30544;42.196;24.336;2024-01-30T03:11:01;101357.34;;;-0.05;68.65
26376;BME280;30544;42.196;24.336;2024-01-30T03:13:29;101360.06;;;-0.05;68.88
26376;BME280;30544;42.196;24.336;2024-01-30T03:15:55;101358.47;;;-0.07;68.86
26376;BME280;30544;42.196;24.336;2024-01-30T03:18:22;101352.00;;;0.05;68.69
26376;BME280;30544;42.196;24.336;2024-01-30T03:20:48;101355.19;;;0.10;68.01
26376;BME280;30544;42.196;24.336;2024-01-30T03:23:15;101352.94;;;0.15;68.15
26376;BME280;30544;42.196;24.336;2024-01-30T03:25:42;101349.03;;;0.29;67.55
26376;BME280;30544;42.196;24.336;2024-01-30T03:28:08;101349.28;;;0.37;67.36
26376;BME280;30544;42.196;24.336;2024-01-30T03:30:36;101358.31;;;0.38;66.90
26376;BME280;30544;42.196;24.336;2024-01-30T03:33:03;101351.19;;;0.46;67.11
26376;BME280;30544;42.196;24.336;2024-01-30T03:35:29;101352.28;;;0.55;67.06
26376;BME280;30544;42.196;24.336;2024-01-30T03:37:56;101356.28;;;0.51;66.69
26376;BME280;30544;42.196;24.336;2024-01-30T03:40:22;101354.75;;;0.58;66.50
26376;BME280;30544;42.196;24.336;2024-01-30T03:42:49;101358.22;;;0.60;65.83
26376;BME280;30544;42.196;24.336;2024-01-30T03:45:15;101359.22;;;0.59;65.80
26376;BME280;30544;42.196;24.336;2024-01-30T03:47:46;101359.34;;;0.57;65.59
26376;BME280;30544;42.196;24.336;2024-01-30T03:50:12;101362.22;;;0.56;65.95
26376;BME280;30544;42.196;24.336;2024-01-30T03:52:39;101356.75;;;0.56;65.88
26376;BME280;30544;42.196;24.336;2024-01-30T03:55:05;101366.66;;;0.57;65.43
26376;BME280;30544;42.196;24.336;2024-01-30T03:57:32;101364.53;;;0.60;65.84
26376;BME280;30544;42.196;24.336;2024-01-30T03:59:58;101355.06;;;0.65;65.73
26376;BME280;30544;42.196;24.336;2024-01-30T04:02:25;101361.88;;;0.70;65.82
26376;BME280;30544;42.196;24.336;2024-01-30T04:04:53;101359.75;;;0.74;66.31
26376;BME280;30544;42.196;24.336;2024-01-30T04:07:19;101359.34;;;0.78;65.95
26376;BME280;30544;42.196;24.336;2024-01-30T04:09:46;101356.19;;;0.83;66.20
26376;BME280;30544;42.196;24.336;2024-01-30T04:12:12;101359.28;;;0.89;65.94
26376;BME280;30544;42.196;24.336;2024-01-30T04:14:39;101365.66;;;1.00;65.71
26376;BME280;30544;42.196;24.336;2024-01-30T04:17:05;101357.72;;;0.97;65.67
26376;BME280;30544;42.196;24.336;2024-01-30T04:19:32;101351.25;;;0.98;65.32
26376;BME280;30544;42.196;24.336;2024-01-30T04:22:00;101357.81;;;1.06;65.78
26376;BME280;30544;42.196;24.336;2024-01-30T04:24:26;101357.09;;;1.04;65.53
26376;BME280;30544;42.196;24.336;2024-01-30T04:26:53;101367.03;;;1.15;65.00
26376;BME280;30544;42.196;24.336;2024-01-30T04:29:19;101362.44;;;1.15;64.88
26376;BME280;30544;42.196;24.336;2024-01-30T04:31:47;101360.06;;;1.22;65.15
26376;BME280;30544;42.196;24.336;2024-01-30T04:34:14;101367.78;;;1.17;64.59
26376;BME280;30544;42.196;24.336;2024-01-30T04:36:43;101364.66;;;1.22;65.16
26376;BME280;30544;42.196;24.336;2024-01-30T04:39:11;101367.84;;;1.27;64.38
26376;BME280;30544;42.196;24.336;2024-01-30T04:41:38;101372.16;;;1.29;64.68
26376;BME280;30544;42.196;24.336;2024-01-30T04:44:05;101373.09;;;1.39;64.21
26376;BME280;30544;42.196;24.336;2024-01-30T04:46:31;101373.97;;;1.49;64.37
26376;BME280;30544;42.196;24.336;2024-01-30T04:48:59;101367.13;;;1.55;64.18
26376;BME280;30544;42.196;24.336;2024-01-30T04:51:26;101367.84;;;1.57;64.20
26376;BME280;30544;42.196;24.336;2024-01-30T04:53:52;101379.38;;;1.61;63.84
26376;BME280;30544;42.196;24.336;2024-01-30T04:56:20;101369.16;;;1.63;63.69
26376;BME280;30544;42.196;24.336;2024-01-30T04:58:47;101378.94;;;1.65;63.93
26376;BME280;30544;42.196;24.336;2024-01-30T05:01:14;101397.97;;;1.67;63.38
26376;BME280;30544;42.196;24.336;2024-01-30T05:03:41;101393.25;;;1.69;63.71
26376;BME280;30544;42.196;24.336;2024-01-30T05:06:07;101388.50;;;1.71;63.30
26376;BME280;30544;42.196;24.336;2024-01-30T05:08:34;101398.56;;;1.70;63.21
26376;BME280;30544;42.196;24.336;2024-01-30T05:11:01;101394.19;;;1.58;63.24
26376;BME280;30544;42.196;24.336;2024-01-30T05:13:30;101391.91;;;1.63;63.55
26376;BME280;30544;42.196;24.336;2024-01-30T05:15:57;101396.78;;;1.60;62.53
26376;BME280;30544;42.196;24.336;2024-01-30T05:18:23;101395.91;;;1.59;63.69
26376;BME280;30544;42.196;24.336;2024-01-30T05:20:50;101388.66;;;1.48;63.80
26376;BME280;30544;42.196;24.336;2024-01-30T05:23:16;101397.59;;;1.50;62.79
26376;BME280;30544;42.196;24.336;2024-01-30T05:25:43;101395.28;;;1.46;62.88
26376;BME280;30544;42.196;24.336;2024-01-30T05:28:09;101397.56;;;1.41;63.17
26376;BME280;30544;42.196;24.336;2024-01-30T05:30:37;101395.38;;;1.35;63.56
26376;BME280;30544;42.196;24.336;2024-01-30T05:33:04;101399.06;;;1.24;64.11
26376;BME280;30544;42.196;24.336;2024-01-30T05:35:30;101397.75;;;1.18;64.90
26376;BME280;30544;42.196;24.336;2024-01-30T05:37:57;101393.06;;;1.09;64.33
26376;BME280;30544;42.196;24.336;2024-01-30T05:40:23;101397.66;;;1.09;64.15
26376;BME280;30544;42.196;24.336;2024-01-30T05:42:50;101400.53;;;1.07;64.38
26376;BME280;30544;42.196;24.336;2024-01-30T05:45:16;101408.38;;;1.01;64.63
26376;BME280;30544;42.196;24.336;2024-01-30T05:47:44;101403.19;;;0.98;64.59
26376;BME280;30544;42.196;24.336;2024-01-30T05:50:11;101399.00;;;0.94;64.48
26376;BME280;30544;42.196;24.336;2024-01-30T05:52:37;101403.88;;;0.90;65.31
26376;BME280;30544;42.196;24.336;2024-01-30T05:55:04;101395.22;;;0.85;65.12
26376;BME280;30544;42.196;24.336;2024-01-30T05:57:30;101399.06;;;0.82;65.12
26376;BME280;30544;42.196;24.336;2024-01-30T05:59:57;101400.19;;;0.80;65.30
26376;BME280;30544;42.196;24.336;2024-01-30T06:02:24;101398.88;;;0.74;65.61
26376;BME280;30544;42.196;24.336;2024-01-30T06:04:51;101398.47;;;0.79;65.81
26376;BME280;30544;42.196;24.336;2024-01-30T06:07:18;101395.19;;;0.64;66.21
26376;BME280;30544;42.196;24.336;2024-01-30T06:09:44;101409.47;;;0.68;66.80
26376;BME280;30544;42.196;24.336;2024-01-30T06:12:11;101408.34;;;0.70;66.83
26376;BME280;30544;42.196;24.336;2024-01-30T06:14:38;101414.78;;;0.69;66.37
26376;BME280;30544;42.196;24.336;2024-01-30T06:17:05;101411.19;;;0.69;66.36
26376;BME280;30544;42.196;24.336;2024-01-30T06:19:31;101405.72;;;0.69;66.07
26376;BME280;30544;42.196;24.336;2024-01-30T06:21:59;101401.13;;;0.69;66.27
26376;BME280;30544;42.196;24.336;2024-01-30T06:24:27;101398.41;;;0.69;66.74
26376;BME280;30544;42.196;24.336;2024-01-30T06:26:54;101405.19;;;0.75;66.52
26376;BME280;30544;42.196;24.336;2024-01-30T06:29:20;101409.78;;;0.74;66.43
26376;BME280;30544;42.196;24.336;2024-01-30T06:31:47;101407.19;;;0.73;66.83
26376;BME280;30544;42.196;24.336;2024-01-30T06:34:13;101408.53;;;0.78;66.36
26376;BME280;30544;42.196;24.336;2024-01-30T06:36:40;101415.59;;;0.81;66.59
26376;BME280;30544;42.196;24.336;2024-01-30T06:39:08;101423.66;;;0.82;66.46
26376;BME280;30544;42.196;24.336;2024-01-30T06:41:34;101422.41;;;0.86;66.19
26376;BME280;30544;42.196;24.336;2024-01-30T06:44:01;101422.59;;;0.95;67.02
26376;BME280;30544;42.196;24.336;2024-01-30T06:46:28;101428.06;;;0.95;66.55
26376;BME280;30544;42.196;24.336;2024-01-30T06:48:54;101432.13;;;1.00;66.65
26376;BME280;30544;42.196;24.336;2024-01-30T06:51:21;101432.13;;;1.00;66.37
26376;BME280;30544;42.196;24.336;2024-01-30T06:53:47;101433.22;;;1.09;66.07
26376;BME280;30544;42.196;24.336;2024-01-30T06:56:15;101435.59;;;1.23;66.30
26376;BME280;30544;42.196;24.336;2024-01-30T06:58:46;101433.59;;;1.25;66.21
26376;BME280;30544;42.196;24.336;2024-01-30T07:01:12;101425.22;;;1.47;66.18
26376;BME280;30544;42.196;24.336;2024-01-30T07:03:39;101430.19;;;1.63;65.54
26376;BME280;30544;42.196;24.336;2024-01-30T07:06:05;101434.00;;;1.72;64.40
26376;BME280;30544;42.196;24.336;2024-01-30T07:08:32;101438.69;;;1.91;63.95
26376;BME280;30544;42.196;24.336;2024-01-30T07:10:58;101436.72;;;2.12;64.63
26376;BME280;30544;42.196;24.336;2024-01-30T07:13:27;101441.22;;;2.23;63.35
26376;BME280;30544;42.196;24.336;2024-01-30T07:15:53;101431.88;;;2.35;63.70
26376;BME280;30544;42.196;24.336;2024-01-30T07:18:20;101436.78;;;2.51;62.25
26376;BME280;30544;42.196;24.336;2024-01-30T07:20:46;101446.91;;;2.60;61.72
26376;BME280;30544;42.196;24.336;2024-01-30T07:23:14;101434.53;;;2.75;60.58
26376;BME280;30544;42.196;24.336;2024-01-30T07:25:42;101443.19;;;2.90;60.84
26376;BME280;30544;42.196;24.336;2024-01-30T07:28:09;101426.72;;;3.09;59.47
26376;BME280;30544;42.196;24.336;2024-01-30T07:30:38;101424.94;;;3.27;59.32
26376;BME280;30544;42.196;24.336;2024-01-30T07:33:05;101427.94;;;3.44;58.90
26376;BME280;30544;42.196;24.336;2024-01-30T07:35:31;101427.16;;;3.61;58.16
26376;BME280;30544;42.196;24.336;2024-01-30T07:37:58;101429.88;;;3.71;57.46
26376;BME280;30544;42.196;24.336;2024-01-30T07:40:24;101435.72;;;3.85;57.48
26376;BME280;30544;42.196;24.336;2024-01-30T07:42:53;101429.31;;;4.04;57.50
26376;BME280;30544;42.196;24.336;2024-01-30T07:45:20;101427.75;;;4.19;57.36
26376;BME280;30544;42.196;24.336;2024-01-30T07:47:50;101421.50;;;4.27;56.32
26376;BME280;30544;42.196;24.336;2024-01-30T07:50:17;101427.00;;;4.27;55.44
26376;BME280;30544;42.196;24.336;2024-01-30T07:52:44;101421.97;;;4.22;55.08
26376;BME280;30544;42.196;24.336;2024-01-30T07:55:11;101422.16;;;4.11;54.46
26376;BME280;30544;42.196;24.336;2024-01-30T07:57:38;101413.53;;;4.06;54.58
26376;BME280;30544;42.196;24.336;2024-01-30T08:00:05;101408.91;;;4.07;55.01
26376;BME280;30544;42.196;24.336;2024-01-30T08:02:32;101412.34;;;4.09;54.64
26376;BME280;30544;42.196;24.336;2024-01-30T08:05:00;101409.34;;;4.02;53.65
26376;BME280;30544;42.196;24.336;2024-01-30T08:07:28;101409.75;;;4.07;54.43
26376;BME280;30544;42.196;24.336;2024-01-30T08:09:55;101409.25;;;4.21;54.32
26376;BME280;30544;42.196;24.336;2024-01-30T08:12:22;101402.91;;;4.21;53.67
26376;BME280;30544;42.196;24.336;2024-01-30T08:14:48;101409.41;;;4.20;54.37
26376;BME280;30544;42.196;24.336;2024-01-30T08:17:15;101402.09;;;4.29;54.21
26376;BME280;30544;42.196;24.336;2024-01-30T08:19:41;101406.34;;;4.23;54.45
26376;BME280;30544;42.196;24.336;2024-01-30T08:22:09;101408.00;;;4.34;54.08
26376;BME280;30544;42.196;24.336;2024-01-30T08:24:36;101397.97;;;4.42;54.28
26376;BME280;30544;42.196;24.336;2024-01-30T08:27:02;101399.84;;;4.42;53.97
26376;BME280;30544;42.196;24.336;2024-01-30T08:29:30;101400.31;;;4.37;54.32
26376;BME280;30544;42.196;24.336;2024-01-30T08:31:56;101404.13;;;4.54;54.01
26376;BME280;30544;42.196;24.336;2024-01-30T08:34:24;101395.06;;;4.62;53.66
26376;BME280;30544;42.196;24.336;2024-01-30T08:36:50;101396.47;;;4.66;54.39
26376;BME280;30544;42.196;24.336;2024-01-30T08:39:18;101402.38;;;4.71;53.25
26376;BME280;30544;42.196;24.336;2024-01-30T08:41:45;101401.59;;;4.78;52.99
26376;BME280;30544;42.196;24.336;2024-01-30T08:44:11;101403.00;;;4.82;52.73
26376;BME280;30544;42.196;24.336;2024-01-30T08:46:38;101411.72;;;4.78;52.88
26376;BME280;30544;42.196;24.336;2024-01-30T08:49:04;101405.91;;;4.81;52.89
26376;BME280;30544;42.196;24.336;2024-01-30T08:51:31;101405.34;;;4.77;52.45
26376;BME280;30544;42.196;24.336;2024-01-30T08:53:57;101391.84;;;4.84;52.43
26376;BME280;30544;42.196;24.336;2024-01-30T08:56:25;101403.53;;;4.86;52.63
26376;BME280;30544;42.196;24.336;2024-01-30T08:58:52;101399.00;;;4.77;51.78
26376;BME280;30544;42.196;24.336;2024-01-30T09:01:19;101390.44;;;4.80;51.54
26376;BME280;30544;42.196;24.336;2024-01-30T09:03:45;101391.38;;;4.89;51.97
26376;BME280;30544;42.196;24.336;2024-01-30T09:06:12;101393.63;;;4.93;51.16
26376;BME280;30544;42.196;24.336;2024-01-30T09:08:39;101389.16;;;4.92;51.23
26376;BME280;30544;42.196;24.336;2024-01-30T09:11:08;101393.16;;;4.98;51.71
26376;BME280;30544;42.196;24.336;2024-01-30T09:13:36;101390.25;;;4.99;50.81
26376;BME280;30544;42.196;24.336;2024-01-30T09:16:02;101388.16;;;4.93;50.29
26376;BME280;30544;42.196;24.336;2024-01-30T09:18:29;101388.84;;;4.95;50.13
26376;BME280;30544;42.196;24.336;2024-01-30T09:20:55;101386.16;;;5.03;50.24
26376;BME280;30544;42.196;24.336;2024-01-30T09:23:22;101384.50;;;5.10;50.58
26376;BME280;30544;42.196;24.336;2024-01-30T09:25:48;101381.25;;;5.15;50.17
26376;BME280;30544;42.196;24.336;2024-01-30T09:28:15;101372.22;;;5.23;49.22
26376;BME280;30544;42.196;24.336;2024-01-30T09:30:44;101373.94;;;5.24;48.98
26376;BME280;30544;42.196;24.336;2024-01-30T09:33:10;101371.94;;;5.34;49.21
26376;BME280;30544;42.196;24.336;2024-01-30T09:35:37;101369.00;;;5.35;48.57
26376;BME280;30544;42.196;24.336;2024-01-30T09:38:03;101367.72;;;5.48;47.30
26376;BME280;30544;42.196;24.336;2024-01-30T09:40:30;101351.13;;;5.65;47.56
26376;BME280;30544;42.196;24.336;2024-01-30T09:42:56;101347.56;;;5.73;47.69
26376;BME280;30544;42.196;24.336;2024-01-30T09:45:25;101344.28;;;5.78;46.74
26376;BME280;30544;42.196;24.336;2024-01-30T09:47:53;101345.91;;;5.88;46.66
26376;BME280;30544;42.196;24.336;2024-01-30T09:50:20;101336.47;;;5.99;45.16
26376;BME280;30544;42.196;24.336;2024-01-30T09:52:47;101337.88;;;6.03;45.24
26376;BME280;30544;42.196;24.336;2024-01-30T09:55:13;101330.16;;;6.15;45.80
26376;BME280;30544;42.196;24.336;2024-01-30T09:57:41;101322.44;;;6.34;45.49
26376;BME280;30544;42.196;24.336;2024-01-30T10:00:08;101319.53;;;6.44;45.22
26376;BME280;30544;42.196;24.336;2024-01-30T10:02:34;101323.53;;;6.58;44.64
26376;BME280;30544;42.196;24.336;2024-01-30T10:05:03;101318.34;;;6.63;44.60
26376;BME280;30544;42.196;24.336;2024-01-30T10:07:29;101309.38;;;6.61;43.89
26376;BME280;30544;42.196;24.336;2024-01-30T10:09:56;101309.06;;;6.72;43.76
26376;BME280;30544;42.196;24.336;2024-01-30T10:12:22;101306.78;;;6.84;43.28
26376;BME280;30544;42.196;24.336;2024-01-30T10:14:49;101295.59;;;6.93;42.71
26376;BME280;30544;42.196;24.336;2024-01-30T10:17:15;101303.69;;;6.95;42.06
26376;BME280;30544;42.196;24.336;2024-01-30T10:19:42;101291.09;;;6.92;41.12
26376;BME280;30544;42.196;24.336;2024-01-30T10:22:10;101295.22;;;6.88;40.93
26376;BME280;30544;42.196;24.336;2024-01-30T10:24:37;101288.88;;;6.80;41.09
26376;BME280;30544;42.196;24.336;2024-01-30T10:27:05;101290.06;;;6.93;41.24
26376;BME280;30544;42.196;24.336;2024-01-30T10:29:31;101290.22;;;7.00;40.85
26376;BME280;30544;42.196;24.336;2024-01-30T10:31:58;101288.13;;;7.02;40.35
26376;BME280;30544;42.196;24.336;2024-01-30T10:34:25;101293.31;;;6.97;40.59
26376;BME280;30544;42.196;24.336;2024-01-30T10:36:55;101292.78;;;7.02;40.69
26376;BME280;30544;42.196;24.336;2024-01-30T10:39:26;101296.25;;;7.12;40.83
26376;BME280;30544;42.196;24.336;2024-01-30T10:41:55;101295.38;;;7.11;40.23
26376;BME280;30544;42.196;24.336;2024-01-30T10:44:22;101297.47;;;7.09;40.30
26376;BME280;30544;42.196;24.336;2024-01-30T10:46:50;101292.09;;;7.16;40.86
26376;BME280;30544;42.196;24.336;2024-01-30T10:49:18;101299.50;;;7.23;41.02
26376;BME280;30544;42.196;24.336;2024-01-30T10:51:45;101282.75;;;7.25;40.71
26376;BME280;30544;42.196;24.336;2024-01-30T10:54:12;101291.00;;;7.33;40.42
26376;BME280;30544;42.196;24.336;2024-01-30T10:56:40;101286.66;;;7.39;40.86
26376;BME280;30544;42.196;24.336;2024-01-30T10:59:08;101287.69;;;7.38;40.17
26376;BME280;30544;42.196;24.336;2024-01-30T11:01:35;101282.72;;;7.33;39.92
26376;BME280;30544;42.196;24.336;2024-01-30T11:04:02;101272.72;;;7.32;39.46
26376;BME280;30544;42.196;24.336;2024-01-30T11:06:29;101276.84;;;7.36;39.67
26376;BME280;30544;42.196;24.336;2024-01-30T11:09:02;101270.97;;;7.39;40.00
26376;BME280;30544;42.196;24.336;2024-01-30T11:11:48;101268.19;;;7.47;39.61
26376;BME280;30544;42.196;24.336;2024-01-30T11:14:14;101264.19;;;7.58;39.57
26376;BME280;30544;42.196;24.336;2024-01-30T11:16:41;101260.81;;;7.71;39.78
26376;BME280;30544;42.196;24.336;2024-01-30T11:19:10;101257.47;;;7.83;39.50
26376;BME280;30544;42.196;24.336;2024-01-30T11:21:40;101258.50;;;7.91;38.96
26376;BME280;30544;42.196;24.336;2024-01-30T11:24:06;101265.63;;;8.08;39.34
26376;BME280;30544;42.196;24.336;2024-01-30T11:26:34;101261.56;;;8.19;38.35
26376;BME280;30544;42.196;24.336;2024-01-30T11:29:07;101252.69;;;8.31;38.44
26376;BME280;30544;42.196;24.336;2024-01-30T11:31:34;101257.19;;;8.55;38.30
26376;BME280;30544;42.196;24.336;2024-01-30T11:34:01;101255.13;;;8.57;37.90
26376;BME280;30544;42.196;24.336;2024-01-30T11:36:27;101245.69;;;8.66;37.30
26376;BME280;30544;42.196;24.336;2024-01-30T11:38:54;101248.38;;;8.74;38.47
26376;BME280;30544;42.196;24.336;2024-01-30T11:41:21;101238.47;;;8.80;38.24
26376;BME280;30544;42.196;24.336;2024-01-30T11:43:51;101233.03;;;8.87;38.44
26376;BME280;30544;42.196;24.336;2024-01-30T11:46:19;101237.59;;;8.80;37.31
26376;BME280;30544;42.196;24.336;2024-01-30T11:48:45;101237.38;;;8.66;37.47
26376;BME280;30544;42.196;24.336;2024-01-30T11:51:12;101230.53;;;8.77;38.30
26376;BME280;30544;42.196;24.336;2024-01-30T11:53:39;101230.22;;;8.72;38.34
26376;BME280;30544;42.196;24.336;2024-01-30T11:56:07;101232.69;;;8.67;37.39
26376;BME280;30544;42.196;24.336;2024-01-30T11:58:34;101228.66;;;8.55;38.01
26376;BME280;30544;42.196;24.336;2024-01-30T12:01:00;101219.69;;;8.53;38.79
26376;BME280;30544;42.196;24.336;2024-01-30T12:03:28;101213.06;;;8.39;37.86
26376;BME280;30544;42.196;24.336;2024-01-30T12:05:55;101217.25;;;8.35;38.44
26376;BME280;30544;42.196;24.336;2024-01-30T12:08:22;101207.25;;;8.34;37.77
26376;BME280;30544;42.196;24.336;2024-01-30T12:10:54;101202.38;;;8.36;37.55
26376;BME280;30544;42.196;24.336;2024-01-30T12:13:21;101198.94;;;8.34;37.99
26376;BME280;30544;42.196;24.336;2024-01-30T12:15:48;101201.00;;;8.32;38.27
26376;BME280;30544;42.196;24.336;2024-01-30T12:18:18;101191.75;;;8.25;38.04
26376;BME280;30544;42.196;24.336;2024-01-30T12:20:47;101180.88;;;8.23;38.51
26376;BME280;30544;42.196;24.336;2024-01-30T12:23:22;101180.34;;;8.20;37.78
26376;BME280;30544;42.196;24.336;2024-01-30T12:25:50;101173.97;;;8.19;38.29
26376;BME280;30544;42.196;24.336;2024-01-30T12:28:17;101168.91;;;8.23;38.03
26376;BME280;30544;42.196;24.336;2024-01-30T12:30:44;101157.34;;;8.27;38.45
26376;BME280;30544;42.196;24.336;2024-01-30T12:33:15;101151.47;;;8.22;37.98
26376;BME280;30544;42.196;24.336;2024-01-30T12:35:46;101158.06;;;8.21;37.14
26376;BME280;30544;42.196;24.336;2024-01-30T12:38:13;101161.56;;;8.15;37.82
26376;BME280;30544;42.196;24.336;2024-01-30T12:40:41;101162.53;;;8.22;37.98
26376;BME280;30544;42.196;24.336;2024-01-30T12:43:08;101154.09;;;8.24;37.94
26376;BME280;30544;42.196;24.336;2024-01-30T12:45:35;101149.66;;;8.14;37.30
26376;BME280;30544;42.196;24.336;2024-01-30T12:48:02;101157.66;;;8.09;37.84
26376;BME280;30544;42.196;24.336;2024-01-30T12:50:28;101155.28;;;8.21;37.25